createdAt,value
2024-04-18T00:02:17.535Z,3.25
2024-04-18T00:05:27.227Z,4.57
2024-04-18T00:08:32.720Z,3.97
2024-04-18T00:12:02.538Z,3.25
2024-04-18T00:15:31.373Z,3.95
2024-04-18T00:18:35.821Z,3.60
2024-04-18T00:22:18.509Z,4.10
2024-04-18T00:25:46.784Z,3.83
2024-04-18T00:29:07.751Z,4.22
2024-04-18T00:32:29.600Z,4.35
2024-04-18T00:36:00.636Z,6.60
2024-04-18T00:39:25.162Z,3.87
2024-04-18T00:42:49.646Z,5.43
2024-04-18T00:45:59.814Z,4.78
2024-04-18T00:49:17.629Z,5.15
2024-04-18T00:52:36.464Z,4.07
2024-04-18T00:55:42.170Z,4.20
2024-04-18T00:58:58.978Z,4.18
2024-04-18T01:02:22.654Z,5.32
2024-04-18T01:05:48.935Z,5.18
2024-04-18T01:09:14.460Z,5.05
2024-04-18T01:12:39.081Z,4.57
2024-04-18T01:15:49.875Z,4.45
2024-04-18T01:19:04.684Z,4.70
2024-04-18T01:22:18.184Z,4.47
2024-04-18T01:25:42.585Z,5.35
2024-04-18T01:28:59.508Z,4.33
2024-04-18T01:32:24.254Z,4.60
2024-04-18T01:35:50.414Z,4.55
2024-04-18T01:39:13.748Z,4.68
2024-04-18T01:42:27.493Z,7.38
2024-04-18T01:46:11.675Z,6.53
2024-04-18T01:49:17.358Z,6.72
2024-04-18T01:52:32.731Z,5.00
2024-04-18T01:55:56.282Z,5.03
2024-04-18T01:59:32.431Z,4.60
2024-04-18T02:02:47.262Z,4.67
2024-04-18T02:06:11.477Z,5.90
2024-04-18T02:09:27.890Z,9.23
2024-04-18T02:12:42.904Z,4.97
2024-04-18T02:15:49.766Z,5.05
2024-04-18T02:18:55.351Z,5.57
2024-04-18T02:22:02.806Z,5.15
2024-04-18T02:25:26.815Z,5.20
2024-04-18T02:28:52.769Z,5.50
2024-04-18T02:32:14.170Z,5.65
2024-04-18T02:35:20.385Z,5.87
2024-04-18T02:38:49.146Z,7.05
2024-04-18T02:41:58.912Z,5.78
2024-04-18T02:45:21.425Z,6.30
2024-04-18T02:48:48.302Z,6.03
2024-04-18T02:52:05.575Z,5.60
2024-04-18T02:55:21.442Z,6.30
2024-04-18T02:58:34.440Z,6.70
2024-04-18T03:02:05.493Z,6.03
2024-04-18T03:05:33.180Z,6.57
2024-04-18T03:08:53.227Z,6.87
2024-04-18T03:12:22.410Z,7.47
2024-04-18T03:16:10.569Z,5.60
2024-04-18T03:19:37.729Z,7.15
2024-04-18T03:23:05.216Z,6.22
2024-04-18T03:26:17.329Z,7.20
2024-04-18T03:29:39.999Z,6.88
2024-04-18T03:33:05.024Z,7.80
2024-04-18T03:36:23.141Z,7.28
2024-04-18T03:39:44.204Z,7.90
2024-04-18T03:42:58.191Z,9.87
2024-04-18T03:46:28.147Z,8.80
2024-04-18T03:49:51.054Z,7.78
2024-04-18T03:53:23.858Z,8.07
2024-04-18T03:56:55.642Z,7.75
2024-04-18T04:00:00.045Z,7.70
2024-04-18T04:03:15.968Z,8.00
2024-04-18T04:06:19.366Z,7.32
2024-04-18T04:09:26.098Z,7.80
2024-04-18T04:12:47.393Z,8.65
2024-04-18T04:16:12.962Z,7.20
2024-04-18T04:19:20.758Z,7.35
2024-04-18T04:22:44.896Z,8.73
2024-04-18T04:26:04.892Z,9.00
2024-04-18T04:29:31.193Z,9.27
2024-04-18T04:32:41.571Z,8.20
2024-04-18T04:36:08.106Z,10.05
2024-04-18T04:39:33.183Z,8.98
2024-04-18T04:43:00.962Z,9.38
2024-04-18T04:46:08.407Z,9.93
2024-04-18T04:49:28.209Z,9.60
2024-04-18T04:52:41.735Z,10.32
2024-04-18T04:55:59.406Z,10.25
2024-04-18T04:59:04.252Z,11.75
2024-04-18T05:02:36.641Z,8.75
2024-04-18T05:06:00.178Z,11.73
2024-04-18T05:09:21.766Z,9.55
2024-04-18T05:12:37.708Z,9.88
2024-04-18T05:15:45.901Z,9.35
2024-04-18T05:19:07.662Z,11.18
2024-04-18T05:22:16.135Z,11.17
2024-04-18T05:25:20.786Z,11.15
2024-04-18T05:29:07.079Z,10.77
2024-04-18T05:32:25.072Z,10.88
2024-04-18T05:36:05.395Z,12.82
2024-04-18T05:39:21.242Z,10.50
2024-04-18T05:42:34.223Z,13.15
2024-04-18T05:45:55.505Z,11.98
2024-04-18T05:49:09.338Z,13.48
2024-04-18T05:52:20.353Z,11.68
2024-04-18T05:55:41.086Z,12.17
2024-04-18T05:59:05.977Z,13.13
2024-04-18T06:02:18.343Z,13.30
2024-04-18T06:05:32.977Z,14.93
2024-04-18T06:09:16.612Z,10.35
2024-04-18T06:12:34.463Z,11.00
2024-04-18T06:15:50.316Z,11.52
2024-04-18T06:19:04.751Z,10.52
2024-04-18T06:22:23.743Z,11.40
2024-04-18T06:25:49.463Z,10.65
2024-04-18T06:29:00.642Z,10.53
2024-04-18T06:32:24.843Z,13.50
2024-04-18T06:35:39.802Z,12.30
2024-04-18T06:39:04.011Z,12.52
2024-04-18T06:42:15.343Z,10.85
2024-04-18T06:45:27.670Z,13.00
2024-04-18T06:48:41.102Z,10.98
2024-04-18T06:52:06.585Z,11.93
2024-04-18T06:55:25.005Z,12.32
2024-04-18T06:58:38.897Z,14.23
2024-04-18T07:13:36.117Z,15.65
2024-04-18T07:17:19.789Z,11.55
2024-04-18T07:20:47.896Z,10.80
2024-04-18T07:24:14.803Z,11.37
2024-04-18T07:27:25.240Z,10.23
2024-04-18T07:30:32.111Z,10.48
2024-04-18T07:33:44.922Z,9.32
2024-04-18T07:37:12.030Z,9.35
2024-04-18T07:40:23.048Z,9.00
2024-04-18T07:43:52.314Z,11.02
2024-04-18T07:47:32.408Z,12.23
2024-04-18T07:51:19.283Z,8.02
2024-04-18T07:54:54.812Z,5.05
2024-04-18T07:58:05.449Z,5.40
2024-04-18T08:01:17.293Z,5.35
2024-04-18T08:04:52.695Z,6.10
2024-04-18T08:08:09.802Z,6.55
2024-04-18T08:11:52.425Z,8.65
2024-04-18T08:15:00.904Z,6.33
2024-04-18T08:18:43.194Z,5.88
2024-04-18T08:21:51.761Z,5.93
2024-04-18T08:25:32.532Z,15.73
2024-04-18T08:28:44.313Z,7.25
2024-04-18T08:32:03.045Z,5.50
2024-04-18T08:35:21.257Z,7.70
2024-04-18T09:10:18.791Z,4.93
2024-04-18T09:13:33.351Z,4.70
2024-04-18T09:17:00.647Z,5.40
2024-04-18T09:20:18.477Z,5.95
2024-04-18T09:23:47.449Z,5.25
2024-04-18T09:37:35.165Z,6.28
2024-04-18T09:41:30.459Z,12.18
2024-04-18T09:45:12.559Z,6.78
2024-04-18T09:48:32.324Z,5.53
2024-04-18T09:51:55.678Z,6.90
2024-04-18T09:55:03.156Z,4.68
2024-04-18T09:58:28.500Z,4.53
2024-04-18T10:01:46.321Z,5.55
2024-04-18T10:05:07.362Z,5.53
2024-04-18T10:08:41.925Z,6.20
2024-04-18T10:12:03.310Z,5.10
2024-04-18T10:15:22.071Z,5.38
2024-04-18T10:18:58.061Z,5.70
2024-04-18T10:22:51.618Z,5.22
2024-04-18T10:26:14.650Z,4.30
2024-04-18T10:29:38.336Z,5.00
2024-04-18T10:32:50.554Z,5.60
2024-04-18T10:36:07.651Z,5.15
2024-04-18T10:39:33.273Z,4.05
2024-04-18T10:42:57.352Z,3.13
2024-04-18T10:46:27.024Z,3.78
2024-04-18T10:49:47.761Z,3.92
2024-04-18T10:52:56.194Z,5.10
2024-04-18T10:56:08.564Z,4.15
2024-04-18T10:59:25.926Z,3.57
2024-04-18T11:02:51.522Z,3.72
2024-04-18T11:07:13.256Z,3.63
2024-04-18T11:10:59.108Z,3.63
2024-04-18T11:18:21.579Z,4.07
2024-04-18T11:21:32.113Z,4.38
2024-04-18T11:24:37.750Z,7.88
2024-04-18T11:28:14.738Z,3.47
2024-04-18T11:31:25.612Z,3.58
2024-04-18T11:34:38.124Z,2.63
2024-04-18T11:37:43.410Z,2.53
2024-04-18T11:41:00.952Z,3.22
2024-04-18T11:44:23.212Z,4.38
2024-04-18T11:47:45.934Z,2.80
2024-04-18T11:51:09.102Z,2.87
2024-04-18T11:54:18.228Z,3.88
2024-04-18T12:02:43.205Z,3.83
2024-04-18T12:06:42.854Z,5.35
2024-04-18T12:10:30.525Z,3.03
2024-04-18T12:13:54.269Z,2.65
2024-04-18T12:17:17.566Z,2.80
2024-04-18T12:20:24.893Z,5.43
2024-04-18T12:23:48.655Z,3.75
2024-04-18T12:27:39.863Z,3.50
2024-04-18T12:31:29.935Z,4.32
2024-04-18T12:34:55.949Z,5.95
2024-04-18T12:38:14.077Z,2.88
2024-04-18T12:41:25.736Z,2.22
2024-04-18T12:44:38.358Z,3.37
2024-04-18T12:48:19.156Z,2.47
2024-04-18T12:51:50.681Z,4.35
2024-04-18T12:55:03.955Z,2.45
2024-04-18T12:58:29.048Z,5.63
2024-04-18T13:01:46.795Z,3.27
2024-04-18T13:04:58.455Z,3.10
2024-04-18T13:08:17.244Z,3.13
2024-04-18T13:11:50.308Z,3.00
2024-04-18T13:14:58.825Z,5.90
2024-04-18T13:18:13.883Z,6.00
2024-04-18T13:22:03.606Z,6.18
2024-04-18T13:25:38.672Z,5.38
2024-04-18T13:28:59.320Z,7.90
2024-04-18T13:32:06.518Z,4.72
2024-04-18T13:35:25.090Z,4.23
2024-04-18T13:38:43.993Z,6.45
2024-04-18T13:42:14.410Z,4.38
2024-04-18T13:45:42.450Z,6.70
2024-04-18T13:48:55.396Z,5.65
2024-04-18T13:52:18.222Z,4.90
2024-04-18T13:55:44.399Z,6.78
2024-04-18T13:58:59.660Z,3.45
2024-04-18T14:02:21.199Z,4.88
2024-04-18T14:05:46.520Z,7.80
2024-04-18T14:08:53.586Z,4.33
2024-04-18T14:12:34.273Z,4.28
2024-04-18T14:16:02.610Z,5.03
2024-04-18T14:19:28.950Z,5.07
2024-04-18T14:22:51.755Z,6.78
2024-04-18T14:26:04.055Z,5.17
2024-04-18T14:29:28.175Z,3.97
2024-04-18T14:32:39.444Z,5.20
2024-04-18T14:35:55.976Z,4.32
2024-04-18T14:39:23.359Z,6.15
2024-04-18T14:42:44.414Z,4.27
2024-04-18T14:45:48.501Z,4.25
2024-04-18T14:49:30.573Z,3.40
2024-04-18T14:53:25.719Z,4.68
2024-04-18T14:56:46.328Z,4.15
2024-04-18T15:00:11.788Z,5.40
2024-04-18T15:03:23.451Z,3.72
2024-04-18T15:06:34.729Z,2.78
2024-04-18T15:10:10.358Z,3.45
2024-04-18T15:13:36.947Z,2.80
2024-04-18T15:17:18.433Z,4.50
2024-04-18T15:20:51.640Z,4.18
2024-04-18T15:24:14.873Z,4.78
2024-04-18T15:27:50.536Z,5.25
2024-04-18T15:31:13.564Z,4.57
2024-04-18T15:34:38.986Z,4.23
2024-04-18T15:38:05.436Z,3.22
2024-04-18T15:41:13.259Z,9.05
2024-04-18T15:44:32.479Z,2.78
2024-04-18T15:47:52.923Z,5.82
2024-04-18T15:50:58.003Z,3.03
2024-04-18T15:54:27.515Z,5.15
2024-04-18T15:57:51.352Z,3.55
2024-04-18T16:01:13.880Z,3.67
2024-04-18T16:04:49.999Z,3.15
2024-04-18T16:08:14.049Z,2.50
2024-04-18T16:11:18.446Z,3.33
2024-04-18T16:15:55.153Z,3.08
2024-04-18T16:19:16.175Z,3.08
2024-04-18T16:22:47.277Z,3.50
2024-04-18T16:26:09.880Z,2.67
2024-04-18T16:29:22.787Z,3.38
2024-04-18T16:33:27.245Z,3.30
2024-04-18T16:37:08.943Z,2.90
2024-04-18T16:40:28.039Z,2.85
2024-04-18T16:43:39.692Z,3.10
2024-04-18T16:46:52.073Z,1.83
2024-04-18T16:50:11.720Z,2.55
2024-04-18T16:53:40.219Z,3.45
2024-04-18T16:57:04.253Z,2.13
2024-04-18T17:00:25.964Z,2.43
2024-04-18T17:03:55.956Z,3.63
2024-04-18T17:07:14.148Z,5.75
2024-04-18T17:10:53.900Z,2.42
2024-04-18T17:14:40.196Z,2.33
2024-04-18T17:17:59.447Z,4.23
2024-04-18T17:21:23.627Z,2.47
2024-04-18T17:24:58.447Z,3.90
2024-04-18T17:28:08.675Z,3.78
2024-04-18T17:31:33.776Z,2.83
2024-04-18T17:34:57.047Z,2.47
2024-04-18T17:38:17.400Z,2.53
2024-04-18T17:42:00.118Z,2.92
2024-04-18T17:45:40.486Z,2.88
2024-04-18T17:49:05.204Z,2.42
2024-04-18T17:52:15.140Z,1.90
2024-04-18T17:55:38.965Z,2.92
2024-04-18T17:59:06.349Z,2.70
2024-04-18T18:02:20.347Z,2.70
2024-04-18T18:06:06.931Z,3.17
2024-04-18T18:09:13.863Z,3.00
2024-04-18T18:12:28.324Z,2.78
2024-04-18T18:15:32.540Z,2.22
2024-04-18T18:18:42.341Z,2.30
2024-04-18T18:21:46.199Z,5.13
2024-04-18T18:25:09.925Z,2.20
2024-04-18T18:28:17.125Z,2.53
2024-04-18T18:31:36.048Z,3.20
2024-04-18T18:34:44.055Z,3.08
2024-04-18T18:38:03.992Z,3.97
2024-04-18T18:41:15.530Z,2.00
2024-04-18T18:44:37.470Z,3.20
2024-04-18T18:47:45.487Z,4.80
2024-04-18T18:51:05.663Z,3.22
2024-04-18T18:54:10.809Z,4.78
2024-04-18T18:57:19.698Z,2.33
2024-04-18T19:00:31.131Z,3.28
2024-04-18T19:03:49.616Z,2.55
2024-04-18T19:07:10.954Z,4.60
2024-04-18T19:10:33.769Z,2.85
2024-04-18T19:13:53.298Z,2.63
2024-04-18T19:17:17.684Z,5.43
2024-04-18T19:20:48.411Z,2.97
2024-04-18T19:24:05.986Z,2.70
2024-04-18T19:27:10.336Z,2.97
2024-04-18T19:30:20.616Z,4.37
2024-04-18T19:33:24.918Z,3.25
2024-04-18T19:36:28.701Z,5.32
2024-04-18T19:39:46.117Z,3.50
2024-04-18T19:43:08.043Z,4.47
2024-04-18T19:46:32.742Z,4.37
2024-04-18T19:50:02.826Z,5.07
2024-04-18T19:53:14.833Z,4.18
2024-04-18T19:56:32.111Z,5.38
2024-04-18T19:59:54.486Z,3.42
2024-04-18T20:03:01.341Z,3.60
2024-04-18T20:06:09.246Z,4.35
2024-04-18T20:09:33.739Z,3.92
2024-04-18T20:12:45.466Z,4.22
2024-04-18T20:16:07.650Z,3.22
2024-04-18T20:19:30.863Z,4.27
2024-04-18T20:22:50.683Z,5.15
2024-04-18T20:26:07.008Z,3.85
2024-04-18T20:29:14.649Z,5.18
2024-04-18T20:32:29.343Z,5.22
2024-04-18T20:35:38.031Z,9.67
2024-04-18T20:38:49.250Z,6.05
2024-04-18T20:41:59.154Z,5.22
2024-04-18T20:45:09.474Z,3.72
2024-04-18T20:51:28.868Z,6.10
2024-04-18T20:54:38.778Z,3.70
2024-04-18T20:57:51.956Z,4.22
2024-04-18T21:00:57.175Z,3.75
2024-04-18T21:04:06.507Z,3.70
2024-04-18T21:07:10.776Z,4.87
2024-04-18T21:10:20.102Z,3.85
2024-04-18T21:13:24.367Z,3.88
2024-04-18T21:16:31.884Z,3.67
2024-04-18T21:19:45.749Z,4.20
2024-04-18T21:23:02.968Z,3.73
2024-04-18T21:26:08.190Z,3.70
2024-04-18T21:29:15.212Z,4.25
2024-04-18T21:32:42.771Z,5.22
2024-04-18T21:36:14.107Z,4.93
2024-04-18T21:39:40.109Z,4.17
2024-04-18T21:42:57.309Z,5.35
2024-04-18T21:46:15.313Z,5.20
2024-04-18T21:49:36.376Z,4.53
2024-04-18T21:52:48.227Z,4.97
2024-04-18T21:56:10.258Z,5.33
2024-04-18T21:59:15.212Z,3.85
2024-04-18T22:02:28.115Z,4.22
2024-04-18T22:05:43.682Z,4.47
2024-04-18T22:09:00.645Z,4.25
2024-04-18T22:12:24.491Z,3.90
2024-04-18T22:15:47.147Z,5.72
2024-04-18T22:18:55.028Z,4.50
2024-04-18T22:22:11.093Z,5.78
2024-04-18T22:25:27.522Z,3.67
2024-04-18T22:28:32.178Z,5.47
2024-04-18T22:31:41.818Z,4.97
2024-04-18T22:34:53.534Z,5.45
2024-04-18T22:38:06.596Z,4.22
2024-04-18T22:41:11.639Z,5.55
2024-04-18T22:44:29.999Z,6.73
2024-04-18T22:47:52.339Z,4.30
2024-04-18T22:51:08.008Z,6.93
2024-04-18T22:54:19.136Z,5.75
2024-04-18T22:57:48.299Z,5.47
2024-04-18T23:01:03.579Z,6.03
2024-04-18T23:04:26.912Z,5.63
2024-04-18T23:07:43.229Z,6.47
2024-04-18T23:11:21.094Z,5.53
2024-04-18T23:14:42.151Z,5.40
2024-04-18T23:17:56.608Z,5.07
2024-04-18T23:21:10.572Z,5.18
2024-04-18T23:24:17.259Z,4.78
2024-04-18T23:27:24.670Z,5.40
2024-04-18T23:30:50.718Z,4.65
2024-04-18T23:34:12.247Z,6.17
2024-04-18T23:37:40.761Z,4.53
2024-04-18T23:40:50.449Z,6.10
2024-04-18T23:44:07.318Z,5.57
2024-04-18T23:47:17.979Z,5.43
2024-04-18T23:50:34.678Z,7.00
2024-04-18T23:53:51.317Z,6.00
2024-04-18T23:57:12.187Z,7.38
